WXM80 ListenWXM80 Stop

You find our weather info also at:

UK Metoffice

WeatherCloud

Weather Underground

Northeastern Weather Network

AWEKAS

Citizen Weather Observer Program (CWOP)

HAMweather, WeatherForYou, PWS Weather


Weather Underground History page Text

Daily Summary for November 4, 2016 Units:  English    Metric   Both
« Previous Day
Next Day »
Daily Weekly Monthly Yearly Custom
  High: Low: Average:
Temperature: 61.0 °F 49.4 °F 55.4 °F
Dew Point: 49.9 °F 32.0 °F 41.5 °F
Humidity: 79 % 37 % 61 %
Wind Speed: 10.1 mph 0.0 mph 3.2 mph
Wind Gust: 15.0 mph - -
Wind:- - SW
Pressure: 30.19 in 29.92 in -
Precipitation: 0.00 in    
Historical Graphs
 
 
Tabular Data for November 4, 2016
Time Temperature Dew Point Pressure Wind Wind Speed Wind Gust Humidity Rainfall Rate (Hourly)
00:01 56.4 °F 49.6 °F 29.92 in NNW 1.0 mph 2.3 mph 78 % 0.00 in
00:07 56.3 °F 49.9 °F 29.92 in WNW 1.9 mph 3.5 mph 79 % 0.00 in
00:12 56.2 °F 49.8 °F 29.92 in WNW 0.4 mph 2.3 mph 79 % 0.00 in
00:17 56.1 °F 49.7 °F 29.92 in NNW 1.4 mph 3.0 mph 79 % 0.00 in
00:22 56.0 °F 49.6 °F 29.92 in NNE 1.8 mph 3.5 mph 79 % 0.00 in
00:27 55.9 °F 49.5 °F 29.92 in WNW 2.1 mph 3.5 mph 79 % 0.00 in
00:32 55.8 °F 49.4 °F 29.92 in WNW 1.8 mph 4.6 mph 79 % 0.00 in
00:37 55.8 °F 49.4 °F 29.92 in North 1.6 mph 3.5 mph 79 % 0.00 in
00:42 55.8 °F 49.4 °F 29.92 in NNW 3.1 mph 4.6 mph 79 % 0.00 in
00:47 55.7 °F 49.3 °F 29.92 in NNW 1.1 mph 3.5 mph 79 % 0.00 in
00:53 55.7 °F 49.3 °F 29.92 in NNW 0.3 mph 3.5 mph 79 % 0.00 in
00:58 55.7 °F 48.9 °F 29.92 in North 2.0 mph 3.5 mph 78 % 0.00 in
01:03 55.7 °F 48.9 °F 29.92 in North 0.9 mph 1.2 mph 78 % 0.00 in
01:08 55.7 °F 49.3 °F 29.92 in Calm     79 % 0.00 in
01:13 55.8 °F 49.0 °F 29.92 in NW 1.5 mph 4.6 mph 78 % 0.00 in
01:18 55.8 °F 49.0 °F 29.92 in WNW 1.1 mph 3.5 mph 78 % 0.00 in
01:23 55.9 °F 49.1 °F 29.92 in North 0.2 mph 2.3 mph 78 % 0.00 in
01:28 55.9 °F 49.5 °F 29.92 in NW 3.5 mph 6.0 mph 79 % 0.00 in
01:33 56.0 °F 49.2 °F 29.92 in NNW 3.4 mph 8.1 mph 78 % 0.00 in
01:38 56.1 °F 49.3 °F 29.92 in NW 1.0 mph 3.5 mph 78 % 0.00 in
01:43 56.2 °F 49.1 °F 29.92 in NNW 2.5 mph 4.6 mph 77 % 0.00 in
01:49 56.2 °F 49.1 °F 29.92 in North 2.9 mph 4.6 mph 77 % 0.00 in
01:54 56.3 °F 49.2 °F 29.92 in NNW 1.8 mph 7.0 mph 77 % 0.00 in
01:59 56.3 °F 49.2 °F 29.92 in NNW 2.8 mph 4.6 mph 77 % 0.00 in
02:04 56.3 °F 49.2 °F 29.92 in NNE 1.9 mph 3.5 mph 77 % 0.00 in
02:09 56.4 °F 49.3 °F 29.92 in NNW 0.2 mph 3.5 mph 77 % 0.00 in
02:14 56.4 °F 49.3 °F 29.92 in NNW 1.1 mph 3.5 mph 77 % 0.00 in
02:19 56.4 °F 49.3 °F 29.92 in NW 1.8 mph 7.0 mph 77 % 0.00 in
02:24 56.4 °F 48.9 °F 29.92 in NE 2.3 mph 5.0 mph 76 % 0.00 in
02:29 56.4 °F 48.9 °F 29.92 in NW 0.4 mph 3.5 mph 76 % 0.00 in
02:34 56.4 °F 48.9 °F 29.93 in WNW 0.3 mph 3.5 mph 76 % 0.00 in
02:40 56.4 °F 48.9 °F 29.93 in NNW 2.1 mph 3.5 mph 76 % 0.00 in
02:45 56.4 °F 48.9 °F 29.93 in NW 1.1 mph 4.6 mph 76 % 0.00 in
02:50 56.4 °F 48.9 °F 29.93 in WNW 1.8 mph 3.5 mph 76 % 0.00 in
02:55 56.4 °F 48.9 °F 29.93 in West 1.7 mph 5.8 mph 76 % 0.00 in
03:00 56.3 °F 49.2 °F 29.94 in NW 0.7 mph 3.5 mph 77 % 0.00 in
03:05 56.3 °F 49.2 °F 29.94 in NW 2.6 mph 3.5 mph 77 % 0.00 in
03:15 56.2 °F 49.1 °F 29.94 in NNW 1.0 mph 6.0 mph 77 % 0.00 in
03:20 56.1 °F 49.0 °F 29.94 in NW 2.8 mph 5.0 mph 77 % 0.00 in
03:25 56.1 °F 49.0 °F 29.94 in NNW 2.0 mph 5.0 mph 77 % 0.00 in
03:30 56.0 °F 48.9 °F 29.95 in NNW 3.0 mph 7.0 mph 77 % 0.00 in
03:35 56.0 °F 49.2 °F 29.95 in NNW 1.1 mph 3.5 mph 78 % 0.00 in
03:40 56.0 °F 48.9 °F 29.95 in NNW 1.0 mph 7.0 mph 77 % 0.00 in
03:45 56.0 °F 48.9 °F 29.94 in NNW 2.0 mph 7.0 mph 77 % 0.00 in
03:50 55.9 °F 48.8 °F 29.94 in North 1.4 mph 3.5 mph 77 % 0.00 in
03:55 55.8 °F 49.0 °F 29.95 in NW 1.0 mph 5.0 mph 78 % 0.00 in
04:00 55.7 °F 48.9 °F 29.95 in NNW 1.9 mph 4.0 mph 78 % 0.00 in
04:05 55.5 °F 48.8 °F 29.95 in North 3.7 mph 3.7 mph 78 % 0.00 in
04:10 55.3 °F 48.6 °F 29.96 in NNW 1.6 mph 3.5 mph 78 % 0.00 in
04:16 55.2 °F 48.5 °F 29.96 in NW 1.8 mph 3.5 mph 78 % 0.00 in
04:21 55.0 °F 48.3 °F 29.96 in NNE 2.5 mph 5.0 mph 78 % 0.00 in
04:26 54.9 °F 47.8 °F 29.97 in North 7.2 mph 10.0 mph 77 % 0.00 in
04:31 54.8 °F 47.7 °F 29.97 in NW 2.9 mph 8.1 mph 77 % 0.00 in
04:36 54.7 °F 46.9 °F 29.97 in North 4.7 mph 8.1 mph 75 % 0.00 in
04:41 54.6 °F 47.2 °F 29.97 in North 3.8 mph 5.8 mph 76 % 0.00 in
04:46 54.5 °F 46.7 °F 29.97 in NW 3.6 mph 5.8 mph 75 % 0.00 in
04:51 54.4 °F 47.0 °F 29.98 in NNE 3.0 mph 9.2 mph 76 % 0.00 in
04:56 54.4 °F 46.6 °F 29.98 in NE 2.1 mph 5.8 mph 75 % 0.00 in
05:01 54.2 °F 46.4 °F 29.98 in North 3.4 mph 8.1 mph 75 % 0.00 in
05:07 54.2 °F 46.4 °F 29.99 in NNE 1.8 mph 5.0 mph 75 % 0.00 in
05:12 54.1 °F 46.7 °F 29.98 in NNW 2.6 mph 5.0 mph 76 % 0.00 in
05:17 54.0 °F 46.6 °F 29.99 in NNW 3.8 mph 5.8 mph 76 % 0.00 in
05:22 53.9 °F 46.5 °F 29.99 in NNW 3.1 mph 4.0 mph 76 % 0.00 in
05:27 53.8 °F 46.4 °F 29.99 in North 1.4 mph 4.0 mph 76 % 0.00 in
05:32 53.7 °F 46.3 °F 30.00 in North 3.6 mph 5.8 mph 76 % 0.00 in
05:37 53.5 °F 46.1 °F 30.00 in North 4.1 mph 4.6 mph 76 % 0.00 in
05:42 53.4 °F 46.0 °F 30.00 in North 5.4 mph 8.1 mph 76 % 0.00 in
05:47 53.3 °F 46.3 °F 30.00 in NNE 2.6 mph 5.8 mph 77 % 0.00 in
05:53 53.3 °F 46.3 °F 30.00 in NNW 4.6 mph 8.1 mph 77 % 0.00 in
05:58 53.2 °F 46.2 °F 30.00 in North 3.6 mph 10.4 mph 77 % 0.00 in
06:03 53.2 °F 45.8 °F 30.01 in NNW 4.1 mph 9.2 mph 76 % 0.00 in
06:08 53.2 °F 45.8 °F 30.01 in NNW 3.9 mph 4.6 mph 76 % 0.00 in
06:13 53.1 °F 45.7 °F 30.01 in WNW 1.5 mph 2.3 mph 76 % 0.00 in
06:18 53.1 °F 45.7 °F 30.01 in NNW 3.7 mph 8.1 mph 76 % 0.00 in
06:23 53.1 °F 46.1 °F 30.01 in NNW 2.0 mph 4.6 mph 77 % 0.00 in
06:28 53.0 °F 46.0 °F 30.02 in NNW 3.4 mph 6.9 mph 77 % 0.00 in
06:33 52.9 °F 45.9 °F 30.02 in North 2.8 mph 4.6 mph 77 % 0.00 in
06:38 52.8 °F 45.8 °F 30.02 in North 1.7 mph 3.5 mph 77 % 0.00 in
06:43 52.8 °F 45.4 °F 30.02 in North 1.6 mph 3.5 mph 76 % 0.00 in
06:48 52.7 °F 45.7 °F 30.02 in NNW 1.2 mph 3.5 mph 77 % 0.00 in
06:54 52.6 °F 45.6 °F 30.02 in NNW 1.4 mph 3.5 mph 77 % 0.00 in
06:59 52.5 °F 45.5 °F 30.03 in NNE 0.6 mph 3.5 mph 77 % 0.00 in
07:04 52.4 °F 45.4 °F 30.03 in NW 3.9 mph 9.2 mph 77 % 0.00 in
07:09 52.4 °F 45.4 °F 30.04 in NNE 4.5 mph 5.8 mph 77 % 0.00 in
07:14 52.4 °F 45.4 °F 30.04 in North 5.7 mph 6.9 mph 77 % 0.00 in
07:19 52.4 °F 45.4 °F 30.05 in North 3.7 mph 6.0 mph 77 % 0.00 in
07:24 52.4 °F 45.4 °F 30.04 in North 2.8 mph 7.0 mph 77 % 0.00 in
07:29 52.4 °F 45.1 °F 30.05 in North 4.7 mph 6.9 mph 76 % 0.00 in
07:34 52.4 °F 45.1 °F 30.05 in North 1.1 mph 3.5 mph 76 % 0.00 in
07:39 52.3 °F 45.0 °F 30.05 in North 1.1 mph 3.5 mph 76 % 0.00 in
07:45 52.3 °F 45.3 °F 30.06 in NE 0.6 mph 2.3 mph 77 % 0.00 in
07:50 52.2 °F 45.2 °F 30.06 in North 3.4 mph 6.9 mph 77 % 0.00 in
07:55 52.1 °F 45.1 °F 30.07 in NNW 2.9 mph 5.8 mph 77 % 0.00 in
08:00 52.1 °F 45.1 °F 30.07 in NNW 4.2 mph 6.9 mph 77 % 0.00 in
08:05 52.2 °F 45.2 °F 30.08 in North 0.6 mph 4.6 mph 77 % 0.00 in
08:10 52.3 °F 45.3 °F 30.08 in NNW 2.7 mph 4.6 mph 77 % 0.00 in
08:15 52.2 °F 45.2 °F 30.08 in NNE 2.2 mph 5.8 mph 77 % 0.00 in
08:20 52.2 °F 45.2 °F 30.08 in North 3.0 mph 7.0 mph 77 % 0.00 in
08:25 52.2 °F 45.2 °F 30.08 in North 3.0 mph 6.0 mph 77 % 0.00 in
08:30 52.3 °F 45.3 °F 30.08 in NNE 2.0 mph 8.0 mph 77 % 0.00 in
08:35 52.4 °F 45.4 °F 30.08 in NNE 2.0 mph 8.0 mph 77 % 0.00 in
08:40 52.6 °F 45.2 °F 30.08 in North 5.0 mph 10.0 mph 76 % 0.00 in
08:45 52.7 °F 45.0 °F 30.08 in North 6.0 mph 10.0 mph 75 % 0.00 in
08:50 52.8 °F 45.1 °F 30.08 in North 5.0 mph 9.0 mph 75 % 0.00 in
08:55 52.9 °F 45.2 °F 30.09 in North 5.0 mph 13.0 mph 75 % 0.00 in
09:00 53.0 °F 45.3 °F 30.09 in NNE 5.1 mph 11.5 mph 75 % 0.00 in
09:05 53.0 °F 45.3 °F 30.09 in North 9.1 mph 11.5 mph 75 % 0.00 in
09:11 53.1 °F 45.0 °F 30.09 in North 6.1 mph 8.1 mph 74 % 0.00 in
09:16 53.2 °F 45.1 °F 30.09 in NNE 6.8 mph 11.5 mph 74 % 0.00 in
09:21 53.4 °F 45.0 °F 30.09 in NNE 9.1 mph 12.7 mph 73 % 0.00 in
09:26 53.5 °F 45.4 °F 30.09 in NNE 5.6 mph 9.2 mph 74 % 0.00 in
09:31 53.7 °F 45.2 °F 30.09 in North 8.3 mph 11.5 mph 73 % 0.00 in
09:36 54.3 °F 45.1 °F 30.09 in NNE 8.8 mph 11.5 mph 71 % 0.00 in
09:41 55.0 °F 45.4 °F 30.09 in ENE 5.0 mph 12.0 mph 70 % 0.00 in
09:46 55.5 °F 45.1 °F 30.09 in North 7.6 mph 13.8 mph 68 % 0.00 in
09:51 55.9 °F 45.1 °F 30.09 in NNE 6.3 mph 8.1 mph 67 % 0.00 in
09:56 56.1 °F 44.9 °F 30.09 in North 6.3 mph 15.0 mph 66 % 0.00 in
10:01 56.3 °F 45.5 °F 30.09 in NE 4.8 mph 10.0 mph 67 % 0.00 in
10:06 56.3 °F 45.5 °F 30.09 in North 5.0 mph 11.5 mph 67 % 0.00 in
10:12 56.4 °F 44.8 °F 30.09 in NNE 6.1 mph 10.4 mph 65 % 0.00 in
10:17 56.6 °F 45.4 °F 30.09 in North 7.2 mph 10.4 mph 66 % 0.00 in
10:22 57.0 °F 46.1 °F 30.10 in NNE 7.0 mph 11.5 mph 67 % 0.00 in
10:27 57.6 °F 45.9 °F 30.10 in NNE 3.8 mph 10.4 mph 65 % 0.00 in
10:32 58.1 °F 46.4 °F 30.09 in NNE 4.6 mph 7.0 mph 65 % 0.00 in
10:37 58.6 °F 46.9 °F 30.10 in North 5.1 mph 6.9 mph 65 % 0.00 in
10:42 59.0 °F 46.4 °F 30.09 in NNE 6.2 mph 9.2 mph 63 % 0.00 in
10:47 59.4 °F 46.4 °F 30.10 in WNW 3.2 mph 5.0 mph 62 % 0.00 in
10:52 59.8 °F 46.3 °F 30.10 in NNE 5.4 mph 10.4 mph 61 % 0.00 in
10:57 59.7 °F 45.3 °F 30.10 in North 4.7 mph 9.2 mph 59 % 0.00 in
11:03 59.8 °F 45.9 °F 30.10 in North 8.2 mph 10.4 mph 60 % 0.00 in
11:08 59.9 °F 44.6 °F 30.10 in NNE 5.1 mph 11.5 mph 57 % 0.00 in
11:13 60.2 °F 45.4 °F 30.10 in NE 4.8 mph 9.2 mph 58 % 0.00 in
11:18 60.4 °F 45.1 °F 30.10 in North 7.2 mph 11.5 mph 57 % 0.00 in
11:23 60.5 °F 44.7 °F 30.10 in NNW 6.1 mph 10.4 mph 56 % 0.00 in
11:28 60.6 °F 44.8 °F 30.11 in NNE 7.3 mph 10.0 mph 56 % 0.00 in
11:33 60.7 °F 44.4 °F 30.11 in North 6.0 mph 11.5 mph 55 % 0.00 in
11:38 60.7 °F 45.4 °F 30.11 in NE 4.9 mph 9.2 mph 57 % 0.00 in
11:43 60.8 °F 45.5 °F 30.10 in NNW 5.1 mph 8.1 mph 57 % 0.00 in
11:49 60.6 °F 44.8 °F 30.10 in NNW 4.1 mph 9.2 mph 56 % 0.00 in
11:54 60.6 °F 46.2 °F 30.10 in NNE 2.7 mph 4.6 mph 59 % 0.00 in
11:59 60.5 °F 44.7 °F 30.10 in NNE 4.2 mph 8.1 mph 56 % 0.00 in
12:04 60.4 °F 44.2 °F 30.10 in NNE 4.0 mph 10.4 mph 55 % 0.00 in
12:09 60.5 °F 46.1 °F 30.10 in NE 4.8 mph 6.9 mph 59 % 0.00 in
12:14 60.4 °F 43.7 °F 30.10 in NNW 5.4 mph 9.2 mph 54 % 0.00 in
12:19 60.1 °F 44.8 °F 30.10 in WNW 5.6 mph 6.9 mph 57 % 0.00 in
12:24 59.6 °F 42.9 °F 30.10 in NNE 6.6 mph 12.7 mph 54 % 0.00 in
12:29 59.0 °F 42.4 °F 30.09 in NE 9.8 mph 12.7 mph 54 % 0.00 in
12:40 58.5 °F 42.8 °F 30.09 in NNW 7.3 mph 11.5 mph 56 % 0.00 in
12:45 58.4 °F 42.8 °F 30.09 in North 6.3 mph 11.5 mph 56 % 0.00 in
12:50 58.5 °F 43.3 °F 30.09 in NNE 3.0 mph 4.6 mph 57 % 0.00 in
12:55 58.7 °F 44.0 °F 30.09 in North 5.6 mph 11.0 mph 58 % 0.00 in
13:00 58.9 °F 42.3 °F 30.09 in North 6.2 mph 11.5 mph 54 % 0.00 in
13:05 59.0 °F 42.4 °F 30.09 in NNE 3.2 mph 10.4 mph 54 % 0.00 in
13:10 58.9 °F 41.8 °F 30.08 in North 7.7 mph 15.0 mph 53 % 0.00 in
13:15 58.8 °F 41.7 °F 30.08 in NNE 4.7 mph 6.9 mph 53 % 0.00 in
13:20 58.7 °F 41.1 °F 30.08 in North 3.0 mph 10.0 mph 52 % 0.00 in
13:25 58.6 °F 41.5 °F 30.08 in NNW 3.0 mph 10.0 mph 53 % 0.00 in
13:30 58.6 °F 41.0 °F 30.08 in NNW 3.0 mph 10.0 mph 52 % 0.00 in
13:35 58.5 °F 40.5 °F 30.08 in NNW 2.0 mph 9.0 mph 51 % 0.00 in
13:40 58.5 °F 40.4 °F 30.08 in NNW 3.0 mph 9.0 mph 51 % 0.00 in
13:45 58.6 °F 40.0 °F 30.08 in NNW 2.5 mph 6.9 mph 50 % 0.00 in
13:50 58.9 °F 39.8 °F 30.08 in NNW 3.0 mph 9.0 mph 49 % 0.00 in
13:55 59.3 °F 40.7 °F 30.08 in North 2.0 mph 9.0 mph 50 % 0.00 in
14:00 59.9 °F 41.2 °F 30.08 in NNE 6.5 mph 13.8 mph 50 % 0.00 in
14:05 60.1 °F 39.8 °F 30.08 in North 8.0 mph 14.0 mph 47 % 0.00 in
14:10 60.4 °F 40.1 °F 30.08 in North 3.0 mph 8.0 mph 47 % 0.00 in
14:15 60.7 °F 39.8 °F 30.08 in North 5.5 mph 5.5 mph 46 % 0.00 in
14:20 60.9 °F 38.8 °F 30.08 in NNW 5.0 mph 12.0 mph 44 % 0.00 in
14:25 61.0 °F 38.9 °F 30.08 in NNW 6.0 mph 13.0 mph 44 % 0.00 in
14:30 60.9 °F 37.6 °F 30.09 in NNW 6.0 mph 12.0 mph 42 % 0.00 in
14:35 60.9 °F 37.6 °F 30.09 in NNE 6.6 mph 6.6 mph 42 % 0.00 in
14:40 60.9 °F 36.4 °F 30.09 in North 4.3 mph 10.4 mph 40 % 0.00 in
14:45 60.9 °F 38.2 °F 30.09 in NNW 4.0 mph 8.1 mph 43 % 0.00 in
14:50 60.9 °F 37.6 °F 30.09 in North 3.3 mph 9.2 mph 42 % 0.00 in
14:56 60.9 °F 37.6 °F 30.09 in NNW 3.5 mph 5.8 mph 42 % 0.00 in
15:01 60.8 °F 36.9 °F 30.09 in North 6.6 mph 13.0 mph 41 % 0.00 in
15:06 60.6 °F 36.8 °F 30.09 in NNE 3.9 mph 6.0 mph 41 % 0.00 in
15:11 60.5 °F 35.4 °F 30.09 in NNE 4.9 mph 9.2 mph 39 % 0.00 in
15:16 60.2 °F 35.1 °F 30.09 in NNW 4.5 mph 8.1 mph 39 % 0.00 in
15:21 59.8 °F 33.5 °F 30.09 in NNW 6.8 mph 12.7 mph 37 % 0.00 in
15:26 59.3 °F 33.0 °F 30.09 in North 10.1 mph 13.8 mph 37 % 0.00 in
15:31 58.9 °F 33.3 °F 30.09 in North 8.0 mph 10.4 mph 38 % 0.00 in
15:42 58.4 °F 33.5 °F 30.09 in NNE 3.9 mph 8.1 mph 39 % 0.00 in
15:47 58.2 °F 32.0 °F 30.10 in NNW 7.0 mph 9.2 mph 37 % 0.00 in
15:52 58.1 °F 33.2 °F 30.10 in North 1.4 mph 4.6 mph 39 % 0.00 in
15:57 57.8 °F 33.0 °F 30.10 in NE 5.7 mph 8.0 mph 39 % 0.00 in
16:02 57.8 °F 33.6 °F 30.10 in North 3.4 mph 9.2 mph 40 % 0.00 in
16:07 57.7 °F 34.1 °F 30.10 in NNE 3.4 mph 5.8 mph 41 % 0.00 in
16:12 57.6 °F 33.4 °F 30.10 in WNW 3.5 mph 9.0 mph 40 % 0.00 in
16:17 57.5 °F 33.3 °F 30.10 in NNE 2.3 mph 8.1 mph 40 % 0.00 in
16:22 57.4 °F 33.9 °F 30.10 in NNW 3.6 mph 11.5 mph 41 % 0.00 in
16:27 57.3 °F 34.4 °F 30.11 in North 5.1 mph 8.1 mph 42 % 0.00 in
16:33 57.3 °F 34.4 °F 30.11 in NNW 4.5 mph 6.9 mph 42 % 0.00 in
16:38 57.3 °F 35.6 °F 30.11 in NNW 3.6 mph 7.0 mph 44 % 0.00 in
16:43 57.2 °F 34.9 °F 30.11 in NE 5.0 mph 7.0 mph 43 % 0.00 in
16:48 57.1 °F 34.2 °F 30.11 in North 4.7 mph 9.2 mph 42 % 0.00 in
16:53 57.1 °F 33.6 °F 30.10 in NNE 3.5 mph 6.9 mph 41 % 0.00 in
16:58 56.9 °F 34.0 °F 30.11 in NW 2.5 mph 8.0 mph 42 % 0.00 in
17:03 56.9 °F 34.6 °F 30.11 in NNW 2.5 mph 3.5 mph 43 % 0.00 in
17:08 56.8 °F 34.5 °F 30.11 in NNE 3.9 mph 6.9 mph 43 % 0.00 in
17:13 56.7 °F 34.4 °F 30.11 in NW 5.2 mph 6.9 mph 43 % 0.00 in
17:18 56.5 °F 34.8 °F 30.11 in North 1.2 mph 4.6 mph 44 % 0.00 in
17:23 56.4 °F 34.7 °F 30.11 in NNE 1.7 mph 3.5 mph 44 % 0.00 in
17:28 56.4 °F 34.7 °F 30.12 in NW 0.9 mph 3.5 mph 44 % 0.00 in
17:34 56.3 °F 35.8 °F 30.11 in NW 1.4 mph 5.0 mph 46 % 0.00 in
17:39 56.1 °F 35.6 °F 30.12 in North 0.5 mph 3.5 mph 46 % 0.00 in
17:44 55.9 °F 34.8 °F 30.12 in West 1.8 mph 4.0 mph 45 % 0.00 in
17:49 55.8 °F 34.8 °F 30.12 in NNW 0.2 mph 1.2 mph 45 % 0.00 in
17:54 55.6 °F 34.0 °F 30.12 in North 0.4 mph 1.2 mph 44 % 0.00 in
17:59 55.5 °F 33.9 °F 30.12 in North 1.2 mph 7.0 mph 44 % 0.00 in
18:04 55.3 °F 33.2 °F 30.12 in NNW 3.0 mph 3.0 mph 43 % 0.00 in
18:09 55.2 °F 34.8 °F 30.12 in NNE 1.3 mph 3.5 mph 46 % 0.00 in
18:14 55.0 °F 35.1 °F 30.12 in NNE 2.5 mph 3.5 mph 47 % 0.00 in
18:19 54.9 °F 35.6 °F 30.12 in NNE 2.8 mph 4.6 mph 48 % 0.00 in
18:24 54.9 °F 35.0 °F 30.13 in NNE 2.3 mph 6.0 mph 47 % 0.00 in
18:30 54.8 °F 34.9 °F 30.13 in NNW 0.3 mph 2.0 mph 47 % 0.00 in
18:35 54.7 °F 35.4 °F 30.13 in NNW 1.0 mph 2.3 mph 48 % 0.00 in
18:40 54.7 °F 35.4 °F 30.13 in North 0.1 mph 1.2 mph 48 % 0.00 in
18:45 54.6 °F 35.8 °F 30.14 in NNW 2.0 mph 3.5 mph 49 % 0.00 in
18:50 54.5 °F 35.7 °F 30.14 in NNW 1.8 mph 4.0 mph 49 % 0.00 in
18:55 54.4 °F 36.1 °F 30.14 in NNW 2.5 mph 3.5 mph 50 % 0.00 in
19:00 54.2 °F 35.9 °F 30.15 in North 1.3 mph 2.3 mph 50 % 0.00 in
19:05 54.1 °F 35.9 °F 30.14 in North 2.7 mph 3.5 mph 50 % 0.00 in
19:10 54.0 °F 35.3 °F 30.15 in North 2.0 mph 3.5 mph 49 % 0.00 in
19:15 53.8 °F 35.6 °F 30.15 in North 1.0 mph 4.0 mph 50 % 0.00 in
19:20 53.7 °F 35.0 °F 30.15 in North 1.0 mph 5.0 mph 49 % 0.00 in
19:25 53.6 °F 34.9 °F 30.15 in North 1.0 mph 4.0 mph 49 % 0.00 in
19:30 53.5 °F 34.8 °F 30.15 in NNE 2.0 mph 5.0 mph 49 % 0.00 in
19:35 53.3 °F 34.1 °F 30.15 in North 5.0 mph 8.0 mph 48 % 0.00 in
19:40 53.2 °F 34.5 °F 30.15 in NNE 2.0 mph 4.0 mph 49 % 0.00 in
19:45 53.2 °F 35.0 °F 30.16 in North 1.0 mph 6.0 mph 50 % 0.00 in
19:50 53.1 °F 34.4 °F 30.16 in North 3.0 mph 6.0 mph 49 % 0.00 in
19:55 53.1 °F 33.9 °F 30.16 in North 2.0 mph 7.0 mph 48 % 0.00 in
20:00 53.2 °F 33.5 °F 30.16 in NNW 2.8 mph 4.6 mph 47 % 0.00 in
20:05 53.2 °F 34.0 °F 30.17 in North 3.6 mph 5.8 mph 48 % 0.00 in
20:10 53.3 °F 34.6 °F 30.17 in North 2.1 mph 4.6 mph 49 % 0.00 in
20:16 53.2 °F 35.0 °F 30.17 in North 3.7 mph 6.9 mph 50 % 0.00 in
20:21 53.3 °F 34.6 °F 30.16 in North 1.5 mph 4.0 mph 49 % 0.00 in
20:26 53.2 °F 34.5 °F 30.17 in North 0.8 mph 4.0 mph 49 % 0.00 in
20:31 53.2 °F 35.5 °F 30.17 in WNW 1.1 mph 2.3 mph 51 % 0.00 in
20:36 53.2 °F 36.0 °F 30.17 in NNW 0.3 mph 1.2 mph 52 % 0.00 in
20:41 53.2 °F 35.5 °F 30.17 in NNW 0.4 mph 4.0 mph 51 % 0.00 in
20:46 53.1 °F 35.9 °F 30.17 in NW 1.2 mph 3.5 mph 52 % 0.00 in
20:51 53.0 °F 35.3 °F 30.17 in WNW 2.1 mph 3.5 mph 51 % 0.00 in
20:56 52.8 °F 35.6 °F 30.18 in North 2.4 mph 5.0 mph 52 % 0.00 in
21:01 52.7 °F 36.0 °F 30.18 in NW 1.9 mph 5.8 mph 53 % 0.00 in
21:06 52.6 °F 36.9 °F 30.18 in WNW 1.1 mph 3.5 mph 55 % 0.00 in
21:12 52.4 °F 36.7 °F 30.18 in North 2.2 mph 4.6 mph 55 % 0.00 in
21:17 52.3 °F 37.1 °F 30.19 in NW 0.3 mph 2.0 mph 56 % 0.00 in
21:22 52.2 °F 37.4 °F 30.18 in NNW 2.0 mph 5.0 mph 57 % 0.00 in
21:27 52.0 °F 36.3 °F 30.18 in North 2.4 mph 5.0 mph 55 % 0.00 in
21:32 51.9 °F 34.3 °F 30.18 in NNW 0.6 mph 2.3 mph 51 % 0.00 in
21:37 51.9 °F 33.3 °F 30.19 in NNE 1.4 mph 4.6 mph 49 % 0.00 in
21:42 51.8 °F 33.2 °F 30.19 in NW 1.1 mph 3.5 mph 49 % 0.00 in
21:47 51.7 °F 33.1 °F 30.19 in North 3.1 mph 6.9 mph 49 % 0.00 in
21:52 51.6 °F 33.0 °F 30.19 in NW 1.0 mph 3.5 mph 49 % 0.00 in
21:57 51.5 °F 33.0 °F 30.19 in North 1.9 mph 4.6 mph 49 % 0.00 in
22:02 51.4 °F 33.4 °F 30.19 in WNW 1.7 mph 5.0 mph 50 % 0.00 in
22:07 51.4 °F 33.9 °F 30.19 in NNW 0.2 mph 1.2 mph 51 % 0.00 in
22:13 51.3 °F 34.7 °F 30.19 in WNW 1.1 mph 3.0 mph 53 % 0.00 in
22:18 51.2 °F 34.6 °F 30.19 in North 1.7 mph 5.8 mph 53 % 0.00 in
22:23 51.1 °F 34.5 °F 30.19 in NNW 1.2 mph 2.3 mph 53 % 0.00 in
22:28 50.9 °F 34.8 °F 30.19 in NE 1.1 mph 4.6 mph 54 % 0.00 in
22:33 50.8 °F 33.8 °F 30.19 in WNW 1.2 mph 2.3 mph 52 % 0.00 in
22:38 50.7 °F 33.7 °F 30.18 in NW 1.4 mph 4.6 mph 52 % 0.00 in
22:43 50.6 °F 33.1 °F 30.18 in WNW 1.5 mph 4.0 mph 51 % 0.00 in
22:48 50.5 °F 34.0 °F 30.18 in NNW 2.6 mph 3.5 mph 53 % 0.00 in
22:53 50.4 °F 33.9 °F 30.18 in NNW 2.9 mph 5.8 mph 53 % 0.00 in
22:58 50.3 °F 33.8 °F 30.18 in WNW 3.0 mph 6.9 mph 53 % 0.00 in
23:04 50.3 °F 33.3 °F 30.18 in NW 1.9 mph 4.6 mph 52 % 0.00 in
23:09 50.1 °F 33.6 °F 30.18 in NW 2.3 mph 4.6 mph 53 % 0.00 in
23:14 50.1 °F 33.1 °F 30.18 in NW 0.8 mph 3.5 mph 52 % 0.00 in
23:19 50.0 °F 32.6 °F 30.18 in North 2.8 mph 6.9 mph 51 % 0.00 in
23:24 49.9 °F 32.5 °F 30.19 in NNW 1.3 mph 3.5 mph 51 % 0.00 in
23:29 49.7 °F 32.8 °F 30.19 in NW 2.0 mph 5.8 mph 52 % 0.00 in
23:34 49.6 °F 32.7 °F 30.18 in NNW 1.2 mph 4.6 mph 52 % 0.00 in
23:39 49.6 °F 32.7 °F 30.19 in WNW 0.9 mph 5.8 mph 52 % 0.00 in
23:44 49.5 °F 32.6 °F 30.18 in WNW 1.2 mph 3.5 mph 52 % 0.00 in
23:49 49.5 °F 33.5 °F 30.19 in NW 2.3 mph 5.8 mph 54 % 0.00 in
23:55 49.4 °F 33.4 °F 30.18 in WNW 3.0 mph 6.9 mph 54 % 0.00 in
Crab Meadow Weather
Compliments of Weather Underground - 3 mb

Script developed by  Jim McMurry - jmcmurry@mwt.net Adapted for the template by  Wim van der Kuil - Leuven-Template.eu

Weather Terms: High Wind Warning - Sustained winds of 40 mph or greater for a duration of one hour or longer or gusts to 58 mph or greater.